SKCG/CTG METAR and TAF weather

Enter ICAO airport designator
Station Type Date Time Source
SKCG METAR 2020/10/20 17:00 UTC NOAA

SKCG 201700Z 22009KT 190V280 9999 FEW017 SCT070 31/25 A2982


Station Type Date Time Source
SKCG Decoded METAR 2020/10/20 17:00 UTC NOAA

Cartagena / Rafael Nunez, Colombia (SKCG) 10-27N 075-31W 12M
Oct 20, 2020 - 01:00 PM EDT / 2020.10.20 1700 UTC
Wind: from the SW (220 degrees) at 10 MPH (9 KT) (direction variable):0
Visibility: greater than 7 mile(s):0
Sky conditions: partly cloudy
Temperature: 87 F (31 C)
Heat index: 97.5 F (36.4 C):1
Dew Point: 77 F (25 C)
Relative Humidity: 70%
Pressure (altimeter): 29.82 in. Hg (1009 hPa)
ob: SKCG 201700Z 22009KT 190V280 9999 FEW017 SCT070 31/25 A2982
cycle: 17

Station Type Date Time Source
SKCG TAF 2020/10/20 18:38 UTC NOAA

TAF SKCG 201630Z 2018/2118 35011KT 9999 SCT015 SCT090
TEMPO 2019/2022 5000 TSRA SCT015CB BKN080
BECMG 2102/2104 VRB02KT
TEMPO 2105/2109 8000 DZRA SCT015 BKN080
BECMG 2114/2116 32011KT TX31/2018Z TN24/2111Z

Example: see airport list